Time;durP1;ratioP1;P1;durP2;ratioP2;P2;SDS_P1;SDS_P2;PMS_P1;PMS_P2;Temp;Humidity;BMP_temperature;BMP_pressure;BME280_temperature;BME280_humidity;BME280_pressure;Samples;Min_cycle;Max_cycle;Signal;HPM_P1;HPM_P2
2022/09/11 00:00:42;;;;;;;2.05;0.80;;;;;;;18.01;55.38;98432.56;4503142;31;20092;-81
2022/09/11 00:03:08;;;;;;;0.98;0.60;;;;;;;17.78;56.09;98429.28;4488044;31;20129;-81
2022/09/11 00:05:51;;;;;;;0.57;0.47;;;;;;;17.96;55.42;98432.97;4503356;31;20100;-81
2022/09/11 00:08:18;;;;;;;4.07;0.80;;;;;;;17.92;55.94;98436.88;4503190;31;20080;-81
2022/09/11 00:10:47;;;;;;;1.00;0.60;;;;;;;18.11;55.08;98446.72;4503335;31;20108;-81
2022/09/11 00:13:19;;;;;;;2.65;0.60;;;;;;;17.99;55.42;98439.84;4503288;31;20088;-81
2022/09/11 00:15:45;;;;;;;3.05;0.80;;;;;;;18.03;55.21;98439.44;4489135;31;20114;-81
2022/09/11 00:18:13;;;;;;;1.42;0.60;;;;;;;17.78;55.98;98438.09;4502925;31;20084;-81
2022/09/11 00:20:38;;;;;;;;;;;;;;;17.69;56.31;98434.47;4503245;31;20096;-81
2022/09/11 00:23:04;;;;;;;1.73;0.60;;;;;;;17.37;57.23;98437.31;4503042;31;20240;-81
2022/09/11 00:25:34;;;;;;;2.72;0.70;;;;;;;17.77;56.09;98430.25;4502777;31;20107;-81
2022/09/11 00:28:00;;;;;;;1.45;0.60;;;;;;;17.99;55.40;98426.53;4488653;31;20148;-81
2022/09/11 00:30:25;;;;;;;1.58;0.73;;;;;;;17.62;56.49;98419.16;4502939;31;20108;-81
2022/09/11 00:32:51;;;;;;;2.05;0.73;;;;;;;17.95;55.58;98414.47;4503117;31;20076;-81
2022/09/11 00:35:16;;;;;;;1.27;0.65;;;;;;;17.80;56.04;98417.50;4503029;31;20356;-81
2022/09/11 00:37:42;;;;;;;1.67;0.65;;;;;;;17.51;56.93;98419.28;4503058;31;20080;-81
2022/09/11 00:40:08;;;;;;;2.03;0.70;;;;;;;17.83;56.11;98417.22;4503032;31;20116;-81
2022/09/11 00:42:33;;;;;;;2.78;0.60;;;;;;;17.84;56.04;98416.25;4488679;31;20100;-81
2022/09/11 00:45:02;;;;;;;2.17;0.80;;;;;;;17.60;56.53;98419.31;4502862;31;20080;-81
2022/09/11 00:47:29;;;;;;;2.72;0.70;;;;;;;17.54;56.96;98419.00;4488876;31;20443;-82
2022/09/11 00:49:59;;;;;;;2.05;0.68;;;;;;;17.89;55.90;98415.87;4488463;31;20096;-81
2022/09/11 00:52:28;;;;;;;1.00;0.60;;;;;;;17.50;56.94;98423.78;4502834;31;20088;-81
2022/09/11 00:55:13;;;;;;;2.00;0.70;;;;;;;17.72;56.35;98425.34;4502612;31;20088;-81
2022/09/11 00:57:42;;;;;;;2.45;0.70;;;;;;;17.63;56.50;98418.16;4475370;31;20080;-81
2022/09/11 01:00:08;;;;;;;0.90;0.60;;;;;;;17.72;56.41;98427.19;4502391;31;20108;-81
2022/09/11 01:02:35;;;;;;;1.83;0.60;;;;;;;17.75;56.24;98424.22;4502681;31;20457;-81
2022/09/11 01:05:01;;;;;;;2.80;0.80;;;;;;;17.78;56.16;98429.28;4488365;31;20106;-81
2022/09/11 01:07:28;;;;;;;0.80;0.52;;;;;;;18.03;55.38;98418.09;4488161;31;20128;-81
2022/09/11 01:09:54;;;;;;;1.65;0.70;;;;;;;18.10;55.16;98415.75;4502927;31;20083;-81
2022/09/11 01:12:38;;;;;;;1.20;0.70;;;;;;;18.04;55.39;98413.59;4502966;31;20558;-81
2022/09/11 01:15:10;;;;;;;2.67;0.80;;;;;;;18.06;55.26;98412.50;4488006;31;20114;-81
2022/09/11 01:18:07;;;;;;;2.15;0.80;;;;;;;17.74;56.26;98411.91;4488158;31;20084;-81
2022/09/11 01:20:42;;;;;;;2.47;0.70;;;;;;;17.94;55.73;98420.78;4488132;31;20113;-81
2022/09/11 01:23:13;;;;;;;2.47;0.70;;;;;;;18.00;55.55;98420.22;4488426;31;20130;-81
2022/09/11 01:26:06;;;;;;;1.50;0.73;;;;;;;18.10;55.21;98413.06;4502476;31;20076;-81
2022/09/11 01:28:38;;;;;;;2.92;0.60;;;;;;;18.18;54.86;98405.19;4502451;31;20156;-82
2022/09/11 01:31:11;;;;;;;2.58;0.60;;;;;;;18.23;54.68;98405.63;4488258;31;20127;-81
2022/09/11 01:33:39;;;;;;;2.12;0.60;;;;;;;18.30;54.51;98402.41;4488015;31;20087;-81
2022/09/11 01:36:09;;;;;;;2.28;0.80;;;;;;;18.06;55.11;98401.00;4502267;31;20100;-81
2022/09/11 01:38:50;;;;;;;3.25;0.80;;;;;;;17.76;56.21;98397.44;4474688;31;20355;-81
2022/09/11 01:41:26;;;;;;;2.05;0.70;;;;;;;17.67;56.42;98399.13;4487870;31;20124;-81
2022/09/11 01:44:27;;;;;;;2.58;0.70;;;;;;;18.10;55.15;98397.09;4487939;31;20100;-81
2022/09/11 01:46:53;;;;;;;2.37;0.60;;;;;;;18.11;55.10;98393.41;4437623;32;20089;-81
2022/09/11 01:49:24;;;;;;;2.22;0.68;;;;;;;17.93;55.60;98390.63;4437298;32;20410;-81
2022/09/11 01:51:53;;;;;;;2.35;0.70;;;;;;;17.73;56.26;98400.41;4437396;32;20102;-82
2022/09/11 01:54:23;;;;;;;2.40;0.60;;;;;;;17.82;56.04;98390.72;4437329;32;20532;-81
2022/09/11 01:56:51;;;;;;;1.60;0.60;;;;;;;17.82;56.09;98388.88;4437353;32;20104;-81
2022/09/11 01:59:20;;;;;;;2.53;0.70;;;;;;;17.72;56.37;98388.06;4424260;32;20422;-81
2022/09/11 02:01:50;;;;;;;2.42;0.70;;;;;;;17.79;56.14;98383.00;4437094;32;20183;-82
2022/09/11 02:04:21;;;;;;;2.62;0.80;;;;;;;17.94;55.71;98375.47;4424331;32;20129;-81
2022/09/11 02:07:09;;;;;;;2.40;0.70;;;;;;;17.35;57.52;98372.72;4424225;32;20663;-81
2022/09/11 02:09:42;;;;;;;2.08;0.70;;;;;;;17.73;56.47;98381.75;4424035;32;20516;-81
2022/09/11 02:12:10;;;;;;;2.35;0.80;;;;;;;17.64;56.71;98386.06;4437173;32;20450;-81
2022/09/11 02:14:36;;;;;;;;;;;;;;;17.90;55.96;98374.06;4424480;32;20147;-81
2022/09/11 02:17:16;;;;;;;1.55;0.60;;;;;;;17.91;55.94;98381.09;4436943;32;19981;-81
2022/09/11 02:19:42;;;;;;;3.08;0.70;;;;;;;17.01;58.40;98374.84;4436899;32;20404;-81
2022/09/11 02:22:08;;;;;;;2.45;0.80;;;;;;;17.06;58.42;98369.97;4460079;31;20114;-81
2022/09/11 02:24:33;;;;;;;2.40;0.60;;;;;;;17.34;57.68;98368.34;4487227;31;20108;-81
2022/09/11 02:27:07;;;;;;;2.33;0.70;;;;;;;17.21;57.94;98363.31;4488896;31;20089;-81
2022/09/11 02:29:33;;;;;;;1.98;0.62;;;;;;;17.16;58.01;98368.19;4489410;31;20382;-81
2022/09/11 02:31:59;;;;;;;3.22;0.80;;;;;;;16.87;59.20;98366.25;4503726;31;20092;-81
2022/09/11 02:34:28;;;;;;;1.60;0.60;;;;;;;17.13;58.28;98355.13;4503618;31;20091;-81
2022/09/11 02:37:06;;;;;;;4.20;0.70;;;;;;;17.14;58.09;98354.16;4489397;31;20088;-81
2022/09/11 02:39:43;;;;;;;1.45;0.60;;;;;;;17.10;58.24;98347.44;4503702;31;20435;-81
2022/09/11 02:42:21;;;;;;;2.12;0.70;;;;;;;16.83;58.94;98345.38;4503642;31;20096;-81
2022/09/11 02:44:50;;;;;;;;;;;;;;;16.75;59.36;98346.03;4489644;31;20096;-81
2022/09/11 02:47:58;;;;;;;2.20;0.75;;;;;;;17.00;58.81;98359.88;4503633;31;19971;-81
2022/09/11 02:50:40;;;;;;;1.98;0.80;;;;;;;17.38;57.53;98353.78;4503619;31;20708;-81
2022/09/11 02:53:13;;;;;;;2.15;0.60;;;;;;;17.25;57.87;98355.88;4489402;31;20130;-82
2022/09/11 02:56:03;;;;;;;3.12;0.90;;;;;;;17.14;58.15;98354.16;4476413;31;20088;-81
2022/09/11 02:58:39;;;;;;;3.75;0.70;;;;;;;17.39;57.39;98371.47;4489011;31;20088;-81
2022/09/11 03:01:07;;;;;;;2.58;0.70;;;;;;;17.71;56.45;98366.88;4489030;31;20495;-81
2022/09/11 03:03:40;;;;;;;1.60;0.65;;;;;;;17.32;57.48;98364.16;4489228;31;20436;-81
2022/09/11 03:06:07;;;;;;;2.17;0.80;;;;;;;17.58;56.81;98364.50;4489214;31;20494;-81
2022/09/11 03:08:32;;;;;;;3.47;0.68;;;;;;;17.40;57.19;98374.97;4488949;31;20137;-81
2022/09/11 03:10:58;;;;;;;1.23;0.70;;;;;;;17.41;57.45;98380.16;4489130;31;20092;-81
2022/09/11 03:13:23;;;;;;;2.47;0.73;;;;;;;17.68;56.54;98378.66;4503428;31;20100;-81
2022/09/11 03:15:49;;;;;;;2.28;0.70;;;;;;;17.37;57.57;98375.25;4503323;31;20443;-81
2022/09/11 03:18:14;;;;;;;3.62;0.60;;;;;;;17.30;57.71;98377.59;4503399;31;20092;-82
2022/09/11 03:20:43;;;;;;;1.60;0.70;;;;;;;17.20;57.74;98376.75;4488964;31;20420;-81
2022/09/11 03:23:09;;;;;;;2.83;0.70;;;;;;;17.41;56.82;98377.50;4503280;31;20107;-81
2022/09/11 03:25:34;;;;;;;1.25;0.55;;;;;;;17.02;58.04;98385.37;4503330;31;20178;-81
2022/09/11 03:28:00;;;;;;;2.25;0.70;;;;;;;16.45;59.93;98386.72;4503275;31;20375;-81
2022/09/11 03:30:25;;;;;;;1.37;0.57;;;;;;;16.98;58.49;98386.63;4503195;31;20080;-81
2022/09/11 03:32:52;;;;;;;2.20;0.82;;;;;;;17.40;57.17;98375.81;4503380;31;20100;-81
2022/09/11 03:35:17;;;;;;;3.40;0.60;;;;;;;17.58;56.41;98383.13;4503249;31;20796;-81
2022/09/11 03:37:43;;;;;;;2.37;0.70;;;;;;;16.89;58.51;98382.94;4503151;31;20172;-81
2022/09/11 03:40:08;;;;;;;2.87;0.70;;;;;;;17.15;57.98;98394.94;4502944;31;20114;-81
2022/09/11 03:42:34;;;;;;;3.05;0.70;;;;;;;17.03;58.50;98386.19;4503266;31;20145;-81
2022/09/11 03:44:59;;;;;;;2.22;0.70;;;;;;;17.35;57.55;98388.69;4503100;31;20096;-81
2022/09/11 03:47:25;;;;;;;1.48;0.60;;;;;;;17.41;57.43;98382.81;4503178;31;20356;-81
2022/09/11 03:49:51;;;;;;;1.85;0.60;;;;;;;17.78;56.41;98386.66;4503139;31;20171;-81
2022/09/11 03:52:16;;;;;;;1.92;0.60;;;;;;;17.71;56.61;98393.50;4502916;31;20100;-81
2022/09/11 03:54:42;;;;;;;2.05;0.57;;;;;;;17.60;57.04;98392.66;4503167;31;20099;-81
2022/09/11 03:57:08;;;;;;;1.30;0.60;;;;;;;17.68;56.84;98394.63;4503399;31;20083;-81
2022/09/11 03:59:33;;;;;;;1.12;0.60;;;;;;;17.49;57.39;98395.44;4503091;31;20127;-81
2022/09/11 04:01:59;;;;;;;1.58;0.68;;;;;;;17.46;57.66;98401.03;4503429;31;20420;-81
2022/09/11 04:04:24;;;;;;;1.70;0.70;;;;;;;17.76;56.73;98394.78;4503161;31;20084;-81
2022/09/11 04:06:50;;;;;;;3.62;1.05;;;;;;;17.76;56.72;98400.09;4503229;31;20092;-81
2022/09/11 04:09:16;;;;;;;0.90;0.50;;;;;;;17.45;57.67;98405.53;4503272;31;20352;-81
2022/09/11 04:11:42;;;;;;;2.20;0.62;;;;;;;17.76;56.79;98410.75;4503138;31;20119;-82
2022/09/11 04:14:07;;;;;;;3.28;0.70;;;;;;;17.36;58.22;98410.81;4502983;31;20111;-82
2022/09/11 04:16:34;;;;;;;3.78;0.80;;;;;;;17.10;58.89;98406.81;4502930;31;20387;-81
2022/09/11 04:19:00;;;;;;;2.80;0.65;;;;;;;17.12;58.95;98404.03;4488378;31;20099;-81
2022/09/11 04:21:26;;;;;;;3.00;0.73;;;;;;;17.10;59.00;98406.00;4502933;31;20100;-81
2022/09/11 04:23:54;;;;;;;1.45;0.60;;;;;;;17.08;59.31;98402.63;4502949;31;20500;-81
2022/09/11 04:26:21;;;;;;;3.87;0.90;;;;;;;17.17;59.04;98400.94;4502867;31;20119;-81
2022/09/11 04:28:47;;;;;;;2.65;0.60;;;;;;;16.73;60.16;98400.31;4502916;31;20080;-81
2022/09/11 04:31:13;;;;;;;2.65;0.73;;;;;;;16.68;60.72;98390.91;4502799;31;20115;-81
2022/09/11 04:33:39;;;;;;;2.95;1.52;;;;;;;16.66;61.03;98390.22;4502860;31;20439;-81
2022/09/11 04:36:11;;;;;;;1.77;0.57;;;;;;;16.77;60.71;98393.78;4502766;31;20092;-81
2022/09/11 04:38:40;;;;;;;2.78;0.65;;;;;;;17.14;59.62;98383.44;4502770;31;20356;-81
2022/09/11 04:41:06;;;;;;;2.90;0.68;;;;;;;16.85;60.42;98386.84;4503063;31;20100;-81
2022/09/11 04:43:33;;;;;;;1.62;0.65;;;;;;;16.78;60.50;98390.13;4488735;31;20705;-81
2022/09/11 04:46:03;;;;;;;2.47;0.70;;;;;;;16.80;60.52;98391.66;4503056;31;20140;-81
2022/09/11 04:48:29;;;;;;;2.47;0.80;;;;;;;17.22;59.25;98378.28;4502265;31;20098;-81
2022/09/11 04:51:02;;;;;;;1.52;0.70;;;;;;;16.98;59.88;98380.44;4502757;31;20167;-81
2022/09/11 04:53:28;;;;;;;2.08;0.80;;;;;;;17.04;59.77;98367.44;4475240;31;20114;-81
2022/09/11 04:56:13;;;;;;;3.25;0.60;;;;;;;17.30;59.19;98374.94;4488348;31;20351;-81
2022/09/11 04:58:39;;;;;;;2.90;0.90;;;;;;;17.03;59.93;98376.41;4475298;31;20084;-81
2022/09/11 05:01:09;;;;;;;3.72;1.10;;;;;;;17.12;59.77;98377.41;4502569;31;20148;-81
2022/09/11 05:03:35;;;;;;;2.92;0.70;;;;;;;17.43;58.96;98388.84;4502638;31;20134;-81
2022/09/11 05:06:08;;;;;;;4.22;0.80;;;;;;;17.17;59.84;98379.66;4502566;31;20436;-81
2022/09/11 05:08:34;;;;;;;2.28;0.62;;;;;;;17.20;59.73;98393.53;4475111;31;20080;-81
2022/09/11 05:11:00;;;;;;;1.62;0.80;;;;;;;17.25;59.72;98391.34;4502498;31;20157;-81
2022/09/11 05:13:30;;;;;;;4.03;0.80;;;;;;;17.29;59.83;98391.91;4502516;31;20088;-81
2022/09/11 05:16:08;;;;;;;2.95;0.80;;;;;;;17.41;59.27;98395.28;4502419;31;20118;-81
2022/09/11 05:18:34;;;;;;;2.17;0.90;;;;;;;17.41;59.57;98392.63;4488455;31;20095;-81
2022/09/11 05:21:08;;;;;;;2.10;0.82;;;;;;;17.47;59.20;98378.75;4502627;31;20096;-81
2022/09/11 05:23:34;;;;;;;2.65;0.80;;;;;;;17.48;59.26;98396.41;4488441;31;20119;-81
2022/09/11 05:26:01;;;;;;;2.53;0.68;;;;;;;17.23;60.11;98387.09;4502536;31;20103;-81
2022/09/11 05:28:28;;;;;;;3.12;0.95;;;;;;;17.18;60.35;98389.34;4474782;31;20546;-81
2022/09/11 05:30:53;;;;;;;3.05;0.90;;;;;;;17.33;59.91;98395.13;4502623;31;20198;-81
2022/09/11 05:33:22;;;;;;;4.75;1.02;;;;;;;17.23;60.32;98393.28;4502354;31;20085;-81
2022/09/11 05:35:49;;;;;;;2.75;0.80;;;;;;;17.47;59.44;98403.56;4488243;31;20505;-81
2022/09/11 05:38:15;;;;;;;3.20;0.93;;;;;;;17.35;59.69;98411.81;4487775;31;20067;-81
2022/09/11 05:40:47;;;;;;;1.80;0.73;;;;;;;17.43;59.62;98406.66;4487679;31;20138;-81
2022/09/11 05:43:14;;;;;;;3.22;0.85;;;;;;;17.41;59.74;98400.63;4502220;31;20092;-82
2022/09/11 05:45:40;;;;;;;2.78;0.93;;;;;;;17.40;59.76;98410.44;4502171;31;20167;-81
2022/09/11 05:48:06;;;;;;;2.85;0.80;;;;;;;17.46;59.57;98409.03;4487776;31;20086;-81
2022/09/11 05:50:32;;;;;;;2.80;0.80;;;;;;;17.57;59.31;98405.41;4487645;31;20132;-81
2022/09/11 05:52:57;;;;;;;4.45;0.82;;;;;;;17.93;58.20;98395.94;4501975;31;20099;-81
2022/09/11 05:55:22;;;;;;;1.58;0.75;;;;;;;17.82;58.45;98394.22;4501990;31;20166;-81
2022/09/11 05:57:51;;;;;;;3.05;1.10;;;;;;;18.07;57.47;98398.19;4501896;31;20107;-81
2022/09/11 06:00:16;;;;;;;5.90;0.93;;;;;;;18.19;57.04;98403.38;4474211;31;20112;-81
2022/09/11 06:02:42;;;;;;;1.87;1.00;;;;;;;17.95;57.76;98403.81;4489561;31;20099;-81
2022/09/11 06:05:08;;;;;;;3.67;0.80;;;;;;;18.55;56.06;98414.28;4503923;31;20139;-81
2022/09/11 06:07:34;;;;;;;1.87;0.90;;;;;;;18.78;55.29;98412.12;4503840;31;20457;-81
2022/09/11 06:09:59;;;;;;;3.72;0.80;;;;;;;18.76;55.55;98403.44;4503766;31;20096;-81
2022/09/11 06:12:26;;;;;;;2.42;0.80;;;;;;;19.08;55.03;98416.37;4504159;31;20092;-81
2022/09/11 06:14:51;;;;;;;2.17;0.90;;;;;;;18.99;55.51;98411.94;4504081;31;20088;-81
2022/09/11 06:17:17;;;;;;;2.85;1.30;;;;;;;19.19;55.22;98412.69;4489361;31;20106;-81
2022/09/11 06:19:42;;;;;;;4.97;1.00;;;;;;;19.36;54.37;98408.41;4503803;31;20115;-81
2022/09/11 06:22:07;;;;;;;1.50;0.77;;;;;;;19.21;54.96;98416.06;4503773;31;20104;-81
2022/09/11 06:24:33;;;;;;;2.58;0.95;;;;;;;19.40;54.35;98413.28;4489276;31;20136;-81
2022/09/11 06:26:58;;;;;;;2.80;0.95;;;;;;;19.40;54.46;98413.28;4503829;31;20096;-81
2022/09/11 06:29:24;;;;;;;4.45;0.90;;;;;;;19.06;55.65;98418.34;4503694;31;20131;-81
2022/09/11 06:31:50;;;;;;;2.42;0.70;;;;;;;19.54;54.43;98421.78;4489415;31;20116;-81
2022/09/11 06:34:18;;;;;;;3.42;0.95;;;;;;;19.73;53.99;98419.03;4503737;31;20084;-81
2022/09/11 06:36:44;;;;;;;3.97;0.88;;;;;;;19.40;54.47;98417.78;4503603;31;20164;-82
2022/09/11 06:39:09;;;;;;;3.80;0.90;;;;;;;19.25;55.31;98425.44;4503537;31;20452;-81
2022/09/11 06:41:35;;;;;;;3.35;1.00;;;;;;;20.20;52.74;98421.50;4489295;31;20408;-81
2022/09/11 06:44:00;;;;;;;2.92;0.98;;;;;;;19.70;53.21;98408.63;4503634;31;20424;-82
2022/09/11 06:46:26;;;;;;;2.65;0.90;;;;;;;20.13;52.77;98414.25;4503541;31;20481;-81
2022/09/11 06:48:52;;;;;;;4.47;1.10;;;;;;;20.01;53.14;98410.94;4503482;31;20092;-82
2022/09/11 06:51:19;;;;;;;4.18;0.98;;;;;;;20.55;51.75;98411.72;4489333;31;20126;-82
2022/09/11 06:53:46;;;;;;;3.03;0.98;;;;;;;20.33;51.96;98405.03;4503482;31;20159;-82
2022/09/11 06:56:16;;;;;;;6.20;1.00;;;;;;;20.53;51.99;98416.41;4489152;31;20089;-81
2022/09/11 06:58:42;;;;;;;3.80;1.00;;;;;;;20.17;52.83;98428.97;4503459;31;20117;-82
2022/09/11 07:01:16;;;;;;;1.75;0.80;;;;;;;20.72;50.98;98417.22;4502815;31;20136;-82
2022/09/11 07:03:45;;;;;;;3.37;1.10;;;;;;;20.70;51.69;98422.72;4502620;31;20110;-82
2022/09/11 07:06:12;;;;;;;2.53;0.70;;;;;;;20.59;51.16;98418.47;4502699;31;20137;-81
2022/09/11 07:08:38;;;;;;;2.17;1.00;;;;;;;20.80;50.73;98410.09;4502731;31;20530;-81
2022/09/11 07:11:04;;;;;;;3.47;1.05;;;;;;;20.78;50.72;98419.25;4502459;31;20122;-81
2022/09/11 07:13:31;;;;;;;2.30;0.90;;;;;;;20.50;51.34;98408.69;4488156;31;20091;-81
2022/09/11 07:16:04;;;;;;;3.58;0.80;;;;;;;20.76;51.44;98402.50;4488330;31;20092;-81
2022/09/11 07:18:38;;;;;;;3.22;0.98;;;;;;;20.92;50.15;98410.66;4502489;31;20108;-81
2022/09/11 07:21:10;;;;;;;2.35;0.90;;;;;;;20.87;50.89;98401.41;4502596;31;20163;-81
2022/09/11 07:23:35;;;;;;;2.95;0.90;;;;;;;21.17;50.49;98398.22;4502494;31;20111;-81
2022/09/11 07:26:02;;;;;;;2.78;1.00;;;;;;;21.65;49.61;98395.06;4488135;31;20371;-81
2022/09/11 07:28:28;;;;;;;2.28;0.80;;;;;;;21.85;48.39;98395.63;4502465;31;20108;-81
2022/09/11 07:30:54;;;;;;;3.10;1.00;;;;;;;21.42;49.42;98395.63;4502422;31;20127;-81
2022/09/11 07:33:19;;;;;;;3.87;1.10;;;;;;;21.52;48.77;98387.50;4502305;31;20114;-81
2022/09/11 07:35:45;;;;;;;2.92;1.10;;;;;;;21.13;49.61;98393.34;4487884;31;20107;-81
2022/09/11 07:38:10;;;;;;;3.15;0.95;;;;;;;20.79;51.01;98386.16;4502365;31;20136;-82
2022/09/11 07:40:35;;;;;;;2.70;1.00;;;;;;;20.49;51.72;98390.94;4502128;31;20128;-82
2022/09/11 07:43:01;;;;;;;3.22;1.10;;;;;;;20.62;51.62;98382.53;4487911;31;20182;-81
2022/09/11 07:45:27;;;;;;;3.22;0.95;;;;;;;20.29;52.03;98392.13;4502356;31;20095;-81
2022/09/11 07:47:52;;;;;;;2.80;0.93;;;;;;;20.76;51.21;98389.12;4487720;31;20127;-82
2022/09/11 07:50:17;;;;;;;2.72;1.00;;;;;;;21.41;49.98;98389.44;4487941;31;20138;-81
2022/09/11 07:52:43;;;;;;;2.40;0.90;;;;;;;21.26;50.44;98391.03;4487848;31;20364;-81
2022/09/11 07:55:08;;;;;;;2.97;0.95;;;;;;;21.68;49.33;98389.38;4502238;31;20415;-81
2022/09/11 07:57:34;;;;;;;2.67;0.93;;;;;;;21.32;49.98;98389.56;4487927;31;20135;-82
2022/09/11 07:59:59;;;;;;;3.50;0.85;;;;;;;21.29;49.77;98398.78;4501768;31;20093;-81
2022/09/11 08:02:24;;;;;;;3.25;1.08;;;;;;;21.72;49.04;98390.72;4500567;31;75845;-81
2022/09/11 08:04:50;;;;;;;1.73;0.80;;;;;;;21.74;48.75;98399.44;4488532;31;20122;-81
2022/09/11 08:07:16;;;;;;;1.80;0.90;;;;;;;21.79;48.97;98399.78;4488851;31;20145;-81
2022/09/11 08:09:42;;;;;;;4.12;1.10;;;;;;;21.23;49.46;98410.13;4503127;31;20159;-81
2022/09/11 08:12:08;;;;;;;2.17;0.95;;;;;;;21.32;48.96;98411.81;4488496;31;20123;-82
2022/09/11 08:14:35;;;;;;;3.73;1.10;;;;;;;21.04;49.90;98416.56;4475450;31;20574;-81
2022/09/11 08:17:01;;;;;;;2.40;0.90;;;;;;;21.65;48.67;98424.53;4503086;31;20187;-82
2022/09/11 08:19:26;;;;;;;2.30;0.88;;;;;;;21.68;48.52;98417.00;4488486;31;20096;-81
2022/09/11 08:21:51;;;;;;;2.80;0.88;;;;;;;21.67;48.25;98410.00;4503059;31;20439;-81
2022/09/11 08:24:19;;;;;;;2.65;0.80;;;;;;;21.90;48.11;98418.22;4501958;31;20096;-81
2022/09/11 08:26:44;;;;;;;3.67;0.93;;;;;;;22.26;47.19;98414.44;4488706;31;20372;-82
2022/09/11 08:29:10;;;;;;;2.10;0.95;;;;;;;22.19;46.93;98417.78;4502986;31;20118;-81
2022/09/11 08:31:35;;;;;;;1.20;0.80;;;;;;;22.37;46.23;98406.91;4502874;31;20092;-81
2022/09/11 08:34:01;;;;;;;4.53;1.00;;;;;;;22.40;46.69;98404.88;4488546;31;20076;-82
2022/09/11 08:36:28;;;;;;;5.15;1.10;;;;;;;22.71;45.71;98397.78;4502823;31;20142;-81
2022/09/11 08:38:54;;;;;;;3.62;0.95;;;;;;;22.27;46.89;98408.06;4488624;31;20140;-81
2022/09/11 08:41:31;;;;;;;3.17;0.82;;;;;;;22.67;45.86;98398.31;4502765;31;20171;-81
2022/09/11 08:44:03;;;;;;;2.85;0.90;;;;;;;22.35;47.13;98400.03;4502851;31;20110;-81
2022/09/11 08:46:34;;;;;;;3.30;1.05;;;;;;;22.91;46.01;98398.25;4488620;31;20156;-81
2022/09/11 08:49:11;;;;;;;4.10;1.00;;;;;;;23.35;45.17;98379.00;4488650;31;20380;-81
2022/09/11 08:51:38;;;;;;;3.15;0.90;;;;;;;23.35;44.94;98386.19;4502896;31;20147;-81
2022/09/11 08:54:05;;;;;;;1.85;0.80;;;;;;;23.18;44.84;98385.44;4502702;31;20135;-82
2022/09/11 08:56:35;;;;;;;2.87;0.80;;;;;;;23.39;43.82;98395.56;4488507;31;20123;-81
2022/09/11 08:59:12;;;;;;;2.83;0.90;;;;;;;23.68;43.16;98397.62;4488840;31;20139;-82
2022/09/11 09:01:51;;;;;;;3.42;1.10;;;;;;;23.65;43.41;98408.72;4502576;31;20088;-81
2022/09/11 09:04:40;;;;;;;1.80;1.00;;;;;;;23.45;43.92;98400.28;4502693;31;20123;-82
2022/09/11 09:07:27;;;;;;;2.65;0.93;;;;;;;22.60;45.45;98416.97;4502687;31;20148;-81
2022/09/11 09:09:58;;;;;;;4.62;1.00;;;;;;;22.86;45.52;98403.31;4502625;31;20080;-82
2022/09/11 09:12:24;;;;;;;3.75;1.00;;;;;;;23.03;44.99;98404.12;4502527;31;20114;-82
2022/09/11 09:15:16;;;;;;;2.28;0.90;;;;;;;22.95;45.22;98410.34;4502404;31;20080;-82
2022/09/11 09:17:51;;;;;;;2.90;1.10;;;;;;;22.50;46.10;98417.13;4502603;31;20601;-82
2022/09/11 09:20:24;;;;;;;3.95;0.90;;;;;;;22.36;46.70;98409.75;4488259;31;20104;-81
2022/09/11 09:22:53;;;;;;;1.85;0.70;;;;;;;21.92;47.72;98413.56;4502521;31;20443;-81
2022/09/11 09:25:21;;;;;;;2.53;0.95;;;;;;;21.33;48.89;98421.56;4488166;31;20497;-81
2022/09/11 09:27:59;;;;;;;3.03;0.95;;;;;;;21.97;47.29;98410.38;4488126;31;20453;-82
2022/09/11 09:30:27;;;;;;;4.68;1.15;;;;;;;22.13;46.85;98410.38;4488360;31;20127;-81
2022/09/11 09:33:05;;;;;;;2.22;1.00;;;;;;;21.95;47.84;98418.56;4488001;31;20100;-81
2022/09/11 09:35:38;;;;;;;3.25;1.00;;;;;;;21.33;49.46;98426.91;4502292;31;20080;-82
2022/09/11 09:38:14;;;;;;;2.20;1.10;;;;;;;21.41;49.49;98420.75;4502621;31;20152;-81
2022/09/11 09:40:52;;;;;;;3.05;1.20;;;;;;;21.41;49.13;98421.59;4487908;31;20111;-81
2022/09/11 09:43:37;;;;;;;2.50;0.98;;;;;;;21.63;48.08;98416.66;4488004;31;20079;-81
2022/09/11 09:46:21;;;;;;;3.08;1.17;;;;;;;21.22;49.40;98411.12;4487991;31;20110;-81
2022/09/11 09:48:46;;;;;;;2.97;1.12;;;;;;;21.09;49.63;98405.38;4487962;31;20543;-81
2022/09/11 09:51:13;;;;;;;2.92;1.17;;;;;;;21.79;48.11;98410.53;4502273;31;20087;-81
2022/09/11 09:53:40;;;;;;;4.37;1.00;;;;;;;22.21;47.17;98397.97;4487881;31;20146;-82
2022/09/11 09:56:06;;;;;;;3.28;1.27;;;;;;;22.17;47.59;98398.31;4502006;31;20080;-82
2022/09/11 09:58:35;;;;;;;3.37;0.90;;;;;;;22.83;45.36;98398.28;4474387;31;20348;-82
2022/09/11 10:01:01;;;;;;;2.17;1.12;;;;;;;22.51;46.11;98402.69;4487454;31;20096;-82
2022/09/11 10:03:26;;;;;;;2.75;0.95;;;;;;;23.16;44.43;98407.13;4487625;31;20144;-81
2022/09/11 10:05:54;;;;;;;1.50;0.90;;;;;;;23.27;43.66;98397.00;4501658;31;20183;-81
2022/09/11 10:08:28;;;;;;;2.28;0.95;;;;;;;23.54;43.00;98385.75;4487484;31;20135;-81
2022/09/11 10:10:56;;;;;;;3.20;1.05;;;;;;;23.41;43.79;98384.66;4501854;31;20092;-81
2022/09/11 10:13:25;;;;;;;4.45;0.80;;;;;;;23.84;42.01;98390.50;4487512;31;20076;-81
2022/09/11 10:15:58;;;;;;;2.25;0.88;;;;;;;23.50;42.67;98386.28;4487490;31;20412;-81
2022/09/11 10:18:37;;;;;;;2.12;0.90;;;;;;;23.34;43.32;98390.75;4474180;31;20163;-82
2022/09/11 10:21:11;;;;;;;1.87;0.80;;;;;;;24.14;41.37;98372.59;4487481;31;20122;-82
2022/09/11 10:23:53;;;;;;;2.15;0.80;;;;;;;24.09;41.26;98372.34;4501353;31;20455;-81
2022/09/11 10:26:33;;;;;;;2.05;0.93;;;;;;;23.82;40.90;98377.22;4501667;31;20111;-81
2022/09/11 10:29:13;;;;;;;2.12;0.82;;;;;;;23.72;41.08;98381.94;4501526;31;20088;-81
2022/09/11 10:31:41;;;;;;;1.85;1.00;;;;;;;23.24;42.65;98378.53;4487385;31;20155;-81
2022/09/11 10:34:06;;;;;;;;;;;;;;;23.25;42.89;98372.97;4487382;31;20093;-81
2022/09/11 10:36:33;;;;;;;3.90;1.00;;;;;;;23.19;43.23;98383.59;4487120;31;19976;-81
2022/09/11 10:38:59;;;;;;;2.28;1.02;;;;;;;22.83;44.61;98386.69;4487284;31;20100;-82
2022/09/11 10:41:26;;;;;;;3.75;1.10;;;;;;;22.82;44.37;98391.22;4501412;31;20407;-81
2022/09/11 10:44:01;;;;;;;2.85;0.95;;;;;;;23.05;44.56;98390.53;4487037;31;20114;-81
2022/09/11 10:46:36;;;;;;;5.00;1.45;;;;;;;22.90;45.28;98387.69;4487247;31;20083;-82
2022/09/11 10:49:01;;;;;;;4.03;1.15;;;;;;;22.88;45.56;98387.84;4503692;31;20485;-82
2022/09/11 10:51:29;;;;;;;3.10;1.08;;;;;;;23.36;44.36;98377.97;4503596;31;20112;-82
2022/09/11 10:54:00;;;;;;;2.80;1.15;;;;;;;22.79;45.23;98378.13;4489189;31;20107;-81
2022/09/11 10:56:26;;;;;;;2.22;1.15;;;;;;;23.17;44.58;98381.06;4489157;31;20155;-82
2022/09/11 10:58:58;;;;;;;3.75;1.35;;;;;;;22.94;45.05;98372.91;4503468;31;20092;-82
2022/09/11 11:01:25;;;;;;;2.92;1.27;;;;;;;23.08;44.05;98379.41;4489061;31;20176;-82
2022/09/11 11:03:51;;;;;;;1.65;1.08;;;;;;;23.13;43.80;98385.13;4489381;31;20135;-81
2022/09/11 11:06:39;;;;;;;3.45;1.23;;;;;;;23.67;42.68;98385.19;4489200;31;20080;-82
2022/09/11 11:09:22;;;;;;;4.47;1.37;;;;;;;23.88;41.93;98378.37;4489222;31;20364;-81
2022/09/11 11:12:17;;;;;;;3.47;1.37;;;;;;;23.76;42.44;98377.91;4503549;31;20147;-82
2022/09/11 11:14:53;;;;;;;2.28;1.12;;;;;;;23.92;41.63;98375.13;4489193;31;20151;-82
2022/09/11 11:17:44;;;;;;;3.60;1.20;;;;;;;24.03;41.37;98370.34;4489277;31;20092;-82
2022/09/11 11:20:21;;;;;;;2.45;1.10;;;;;;;23.87;41.80;98372.13;4503675;31;20163;-81
2022/09/11 11:23:05;;;;;;;2.85;1.10;;;;;;;23.97;40.86;98371.94;4503460;31;20142;-81
2022/09/11 11:25:43;;;;;;;3.30;1.10;;;;;;;23.59;41.44;98361.03;4503461;31;20110;-81
2022/09/11 11:28:12;;;;;;;2.67;0.95;;;;;;;23.77;41.47;98366.12;4489139;31;20080;-82
2022/09/11 11:31:05;;;;;;;4.47;1.40;;;;;;;23.79;41.79;98363.31;4488925;31;20135;-81
2022/09/11 11:33:50;;;;;;;4.30;1.10;;;;;;;23.58;42.39;98362.03;4503695;31;20125;-82
2022/09/11 11:36:27;;;;;;;2.97;1.10;;;;;;;23.68;42.15;98368.06;4489047;31;20477;-81
2022/09/11 11:39:38;;;;;;;2.80;1.00;;;;;;;23.41;42.00;98365.84;4488920;31;20454;-81
2022/09/11 11:42:16;;;;;;;3.33;1.10;;;;;;;23.78;41.30;98359.78;4503681;31;20088;-81
2022/09/11 11:44:53;;;;;;;4.30;1.10;;;;;;;23.63;41.26;98365.06;4489217;31;20168;-81
2022/09/11 11:47:24;;;;;;;3.03;1.10;;;;;;;24.05;40.66;98369.16;4489250;31;20093;-81